createdAt,value
2023-04-18T00:02:18.407Z,102842.25
2023-04-18T00:04:46.441Z,102843.97
2023-04-18T00:07:17.621Z,102849.44
2023-04-18T00:09:44.729Z,102846.06
2023-04-18T00:12:11.735Z,102855.25
2023-04-18T00:14:38.222Z,102854.53
2023-04-18T00:17:09.348Z,102850.13
2023-04-18T00:19:43.201Z,102850.28
2023-04-18T00:22:13.954Z,102847.72
2023-04-18T00:24:40.405Z,102855.84
2023-04-18T00:27:06.817Z,102859.53
2023-04-18T00:29:33.901Z,102853.31
2023-04-18T00:32:00.323Z,102848.72
2023-04-18T00:34:30.418Z,102853.34
2023-04-18T00:36:56.808Z,102856.03
2023-04-18T00:39:23.270Z,102852.59
2023-04-18T00:41:49.728Z,102854.53
2023-04-18T00:44:16.346Z,102859.00
2023-04-18T00:46:43.075Z,102851.88
2023-04-18T00:49:11.273Z,102850.16
2023-04-18T00:51:38.657Z,102845.97
2023-04-18T00:54:07.059Z,102845.28
2023-04-18T00:56:34.649Z,102849.97
2023-04-18T00:59:01.469Z,102844.94
2023-04-18T01:01:28.144Z,102842.44
2023-04-18T01:03:54.728Z,102852.47
2023-04-18T01:06:21.412Z,102843.59
2023-04-18T01:08:47.847Z,102839.22
2023-04-18T01:11:14.269Z,102841.06
2023-04-18T01:13:40.781Z,102841.13
2023-04-18T01:16:07.465Z,102838.38
2023-04-18T01:18:35.087Z,102839.25
2023-04-18T01:21:01.743Z,102842.00
2023-04-18T01:23:28.618Z,102837.63
2023-04-18T01:25:55.006Z,102838.50
2023-04-18T01:28:22.699Z,102833.13
2023-04-18T01:30:49.282Z,102837.66
2023-04-18T01:33:16.273Z,102831.47
2023-04-18T01:35:45.366Z,102827.09
2023-04-18T01:38:11.819Z,102830.72
2023-04-18T01:40:38.272Z,102827.19
2023-04-18T01:43:04.737Z,102826.38
2023-04-18T01:45:31.219Z,102819.25
2023-04-18T01:47:57.668Z,102823.75
2023-04-18T01:50:24.414Z,102821.13
2023-04-18T01:52:51.183Z,102821.25
2023-04-18T01:55:17.763Z,102825.75
2023-04-18T01:57:44.291Z,102818.69
2023-04-18T02:00:11.420Z,102819.75
2023-04-18T02:02:43.985Z,102824.25
2023-04-18T02:05:10.696Z,102811.72
2023-04-18T02:07:38.923Z,102817.19
2023-04-18T02:10:05.829Z,102823.50
2023-04-18T02:12:32.688Z,102812.84
2023-04-18T02:14:59.581Z,102818.34
2023-04-18T02:17:26.095Z,102818.34
2023-04-18T02:19:54.507Z,102823.78
2023-04-18T02:22:20.939Z,102818.50
2023-04-18T02:24:47.445Z,102814.97
2023-04-18T02:27:15.037Z,102822.19
2023-04-18T02:29:41.446Z,102816.06
2023-04-18T02:32:09.051Z,102813.47
2023-04-18T02:34:36.337Z,102821.50
2023-04-18T02:37:02.965Z,102824.28
2023-04-18T02:39:29.498Z,102815.47
2023-04-18T02:41:55.921Z,102825.44
2023-04-18T02:44:24.396Z,102828.16
2023-04-18T02:46:50.881Z,102830.94
2023-04-18T02:49:17.373Z,102831.06
2023-04-18T02:51:44.627Z,102828.44
2023-04-18T02:54:11.288Z,102833.81
2023-04-18T02:56:54.036Z,102826.72
2023-04-18T02:59:38.675Z,102826.72
2023-04-18T03:02:24.388Z,102826.78
2023-04-18T03:04:56.304Z,102826.00
2023-04-18T03:07:23.030Z,102820.69
2023-04-18T03:09:51.389Z,102815.38
2023-04-18T03:12:33.341Z,102818.94
2023-04-18T03:15:00.769Z,102813.63
2023-04-18T03:17:28.204Z,102819.06
2023-04-18T03:19:54.765Z,102820.03
2023-04-18T03:22:21.309Z,102816.59
2023-04-18T03:24:55.954Z,102818.44
2023-04-18T03:27:33.086Z,102817.63
2023-04-18T03:29:59.654Z,102821.22
2023-04-18T03:32:27.166Z,102816.84
2023-04-18T03:34:53.857Z,102823.97
2023-04-18T03:37:21.358Z,102832.91
2023-04-18T03:39:52.448Z,102837.38
2023-04-18T03:42:19.328Z,102831.16
2023-04-18T03:44:45.932Z,102826.81
2023-04-18T03:47:14.649Z,102831.34
2023-04-18T03:49:43.979Z,102831.34
2023-04-18T03:52:10.859Z,102838.50
2023-04-18T03:54:37.278Z,102839.47
2023-04-18T03:57:04.452Z,102839.53
2023-04-18T03:59:32.309Z,102838.66
2023-04-18T04:01:58.989Z,102832.28
2023-04-18T04:04:26.121Z,102840.19
2023-04-18T04:06:53.037Z,102840.94
2023-04-18T04:09:19.850Z,102837.22
2023-04-18T04:11:46.322Z,102834.34
2023-04-18T04:14:14.674Z,102834.25
2023-04-18T04:16:44.808Z,102835.91
2023-04-18T04:19:14.834Z,102833.13
2023-04-18T04:21:49.646Z,102836.59
2023-04-18T04:24:17.123Z,102832.94
2023-04-18T04:26:46.642Z,102838.19
2023-04-18T04:29:17.662Z,102830.97
2023-04-18T04:31:45.940Z,102835.41
2023-04-18T04:34:16.901Z,102837.19
2023-04-18T04:36:44.261Z,102838.03
2023-04-18T04:39:12.845Z,102837.97
2023-04-18T04:42:04.284Z,102844.13
2023-04-18T04:44:41.847Z,102836.94
2023-04-18T04:47:08.897Z,102837.69
2023-04-18T04:49:38.665Z,102838.56
2023-04-18T04:52:05.133Z,102843.84
2023-04-18T04:54:31.688Z,102850.97
2023-04-18T04:56:58.361Z,102848.25
2023-04-18T04:59:25.854Z,102858.03
2023-04-18T05:01:52.492Z,102854.44
2023-04-18T05:04:20.130Z,102858.81
2023-04-18T05:06:47.019Z,102854.31
2023-04-18T05:09:13.700Z,102856.09
2023-04-18T05:11:40.328Z,102849.88
2023-04-18T05:14:06.823Z,102860.56
2023-04-18T05:16:33.362Z,102849.81
2023-04-18T05:18:59.960Z,102857.78
2023-04-18T05:21:28.530Z,102862.22
2023-04-18T05:23:56.252Z,102857.69
2023-04-18T05:26:23.231Z,102850.47
2023-04-18T05:28:50.194Z,102863.78
2023-04-18T05:31:16.912Z,102860.97
2023-04-18T05:33:43.389Z,102858.25
2023-04-18T05:36:09.783Z,102871.63
2023-04-18T05:38:36.194Z,102868.91
2023-04-18T05:41:03.019Z,102864.31
2023-04-18T05:43:29.474Z,102871.41
2023-04-18T05:45:57.724Z,102870.38
2023-04-18T05:48:25.128Z,102875.66
2023-04-18T05:50:51.689Z,102879.13
2023-04-18T05:53:18.081Z,102875.34
2023-04-18T05:55:46.397Z,102876.91
2023-04-18T05:58:12.805Z,102879.50
2023-04-18T06:00:39.383Z,102869.59
2023-04-18T06:03:07.844Z,102868.63
2023-04-18T06:05:35.813Z,102872.03
2023-04-18T06:08:03.559Z,102871.06
2023-04-18T06:10:30.120Z,102879.88
2023-04-18T06:12:56.572Z,102872.53
2023-04-18T06:15:23.065Z,102881.34
2023-04-18T06:17:49.637Z,102880.25
2023-04-18T06:20:16.349Z,102883.59
2023-04-18T06:22:42.805Z,102886.91
2023-04-18T06:25:09.976Z,102891.03
2023-04-18T06:27:37.597Z,102886.13
2023-04-18T06:30:05.686Z,102893.75
2023-04-18T06:32:32.132Z,102890.41
2023-04-18T06:34:58.561Z,102890.81
2023-04-18T06:37:25.156Z,102890.66
2023-04-18T06:39:51.670Z,102891.13
2023-04-18T06:42:19.637Z,102884.25
2023-04-18T06:44:47.710Z,102891.09
2023-04-18T06:47:14.145Z,102898.16
2023-04-18T06:49:40.599Z,102894.97
2023-04-18T06:52:07.231Z,102893.31
2023-04-18T06:54:33.664Z,102901.13
2023-04-18T06:57:00.225Z,102898.66
2023-04-18T06:59:26.702Z,102906.38
2023-04-18T07:01:53.326Z,102898.81
2023-04-18T07:04:20.304Z,102903.63
2023-04-18T07:06:47.020Z,102911.88
2023-04-18T07:09:13.478Z,102910.34
2023-04-18T07:11:40.610Z,102902.69
2023-04-18T07:14:07.154Z,102903.34
2023-04-18T07:16:34.332Z,102911.72
2023-04-18T07:19:00.824Z,102906.06
2023-04-18T07:21:27.590Z,102904.88
2023-04-18T07:23:54.048Z,102910.13
2023-04-18T07:26:20.469Z,102910.97
2023-04-18T07:28:47.873Z,102909.84
2023-04-18T07:31:14.517Z,102900.34
2023-04-18T07:33:41.010Z,102906.28
2023-04-18T07:36:07.619Z,102901.97
2023-04-18T07:38:35.396Z,102905.69
2023-04-18T07:41:03.189Z,102907.19
2023-04-18T07:43:29.582Z,102902.75
2023-04-18T07:45:56.052Z,102898.69
2023-04-18T07:48:22.826Z,102903.13
2023-04-18T07:50:49.437Z,102888.59
2023-04-18T07:53:16.325Z,102893.47
2023-04-18T07:55:43.350Z,102888.44
2023-04-18T07:58:09.926Z,102891.53
2023-04-18T08:00:38.719Z,102898.38
2023-04-18T08:03:09.865Z,102885.03
2023-04-18T08:05:36.564Z,102885.88
2023-04-18T08:08:03.054Z,102883.91
2023-04-18T08:10:29.663Z,102887.13
2023-04-18T08:12:56.097Z,102889.31
2023-04-18T08:15:22.528Z,102892.84
2023-04-18T08:17:49.162Z,102884.56
2023-04-18T08:20:15.741Z,102905.16
2023-04-18T08:22:57.726Z,102880.09
2023-04-18T08:25:28.935Z,102876.75
2023-04-18T08:27:55.881Z,102884.09
2023-04-18T08:30:22.393Z,102893.22
2023-04-18T08:32:49.487Z,102900.78
2023-04-18T08:35:16.241Z,102894.09
2023-04-18T08:37:43.185Z,102889.78
2023-04-18T08:40:09.745Z,102910.00
2023-04-18T08:42:38.177Z,102909.94
2023-04-18T08:45:06.822Z,102895.72
2023-04-18T08:47:35.099Z,102893.94
2023-04-18T08:50:01.754Z,102903.81
2023-04-18T08:52:30.689Z,102901.31
2023-04-18T08:54:57.542Z,102895.47
2023-04-18T08:57:26.529Z,102898.66
2023-04-18T08:59:54.022Z,102903.06
2023-04-18T09:02:23.694Z,102905.88
2023-04-18T09:04:52.971Z,102912.03
2023-04-18T09:07:28.436Z,102902.06
2023-04-18T09:09:59.503Z,102898.69
2023-04-18T09:12:27.970Z,102898.38
2023-04-18T09:14:59.601Z,102899.84
2023-04-18T09:17:43.329Z,102890.34
2023-04-18T09:20:11.217Z,102902.09
2023-04-18T09:22:47.845Z,102897.94
2023-04-18T09:25:40.135Z,102893.03
2023-04-18T09:28:30.037Z,102889.38
2023-04-18T09:31:18.060Z,102888.41
2023-04-18T09:33:54.421Z,102893.59
2023-04-18T09:36:27.807Z,102896.56
2023-04-18T09:38:56.871Z,102893.50
2023-04-18T09:41:24.185Z,102879.31
2023-04-18T09:44:09.300Z,102889.94
2023-04-18T09:46:37.405Z,102888.00
2023-04-18T09:49:03.931Z,102887.94
2023-04-18T09:51:31.834Z,102886.16
2023-04-18T09:53:58.746Z,102884.38
2023-04-18T09:56:28.386Z,102885.69
2023-04-18T09:59:08.461Z,102885.06
2023-04-18T10:01:35.290Z,102882.16
2023-04-18T10:04:04.323Z,102889.03
2023-04-18T10:06:38.455Z,102879.84
2023-04-18T10:09:05.824Z,102887.25
2023-04-18T10:11:32.510Z,102887.13
2023-04-18T10:14:04.321Z,102884.03
2023-04-18T10:16:34.092Z,102889.81
2023-04-18T10:19:26.577Z,102892.69
2023-04-18T10:21:55.508Z,102886.53
2023-04-18T10:24:49.860Z,102878.03
2023-04-18T10:27:17.668Z,102876.28
2023-04-18T10:29:52.294Z,102870.66
2023-04-18T10:32:21.937Z,102872.06
2023-04-18T10:34:54.363Z,102869.16
2023-04-18T10:37:20.993Z,102871.00
2023-04-18T10:39:53.614Z,102873.84
2023-04-18T10:42:52.101Z,102866.75
2023-04-18T10:45:22.384Z,102862.53
2023-04-18T10:47:49.725Z,102861.13
2023-04-18T10:50:17.368Z,102852.16
2023-04-18T10:52:44.740Z,102837.97
2023-04-18T10:55:16.510Z,102837.03
2023-04-18T10:57:48.532Z,102830.06
2023-04-18T11:00:20.481Z,102832.91
2023-04-18T11:03:00.031Z,102825.44
2023-04-18T11:05:28.827Z,102828.88
2023-04-18T11:07:55.561Z,102813.44
2023-04-18T11:10:25.572Z,102822.31
2023-04-18T11:12:53.131Z,102828.22
2023-04-18T11:15:24.983Z,102835.19
2023-04-18T11:18:03.918Z,102843.28
2023-04-18T11:20:38.878Z,102847.25
2023-04-18T11:23:16.233Z,102843.38
2023-04-18T11:25:44.853Z,102836.91
2023-04-18T11:28:13.907Z,102835.06
2023-04-18T11:30:41.366Z,102834.94
2023-04-18T11:33:09.333Z,102824.44
2023-04-18T11:35:48.757Z,102837.34
2023-04-18T11:38:15.992Z,102831.56
2023-04-18T11:40:50.069Z,102827.53
2023-04-18T11:43:25.784Z,102832.09
2023-04-18T11:45:59.609Z,102827.50
2023-04-18T11:48:47.700Z,102836.69
2023-04-18T11:51:34.540Z,102839.13
2023-04-18T11:54:01.290Z,102839.72
2023-04-18T11:56:28.333Z,102834.44
2023-04-18T11:58:54.835Z,102843.75
2023-04-18T12:01:23.242Z,102841.41
2023-04-18T12:04:07.878Z,102838.78
2023-04-18T12:06:51.641Z,102834.38
2023-04-18T12:09:19.217Z,102831.97
2023-04-18T12:11:58.055Z,102822.75
2023-04-18T12:14:24.706Z,102825.34
2023-04-18T12:16:51.969Z,102826.31
2023-04-18T12:19:20.714Z,102826.28
2023-04-18T12:22:00.693Z,102830.63
2023-04-18T12:24:29.023Z,102828.41
2023-04-18T12:26:57.454Z,102824.78
2023-04-18T12:29:24.842Z,102830.09
2023-04-18T12:31:51.525Z,102834.69
2023-04-18T12:34:17.997Z,102821.09
2023-04-18T12:36:44.774Z,102820.59
2023-04-18T12:39:11.319Z,102819.88
2023-04-18T12:41:37.736Z,102814.69
2023-04-18T12:44:04.421Z,102814.56
2023-04-18T12:46:31.410Z,102812.69
2023-04-18T12:48:57.984Z,102809.94
2023-04-18T12:51:26.152Z,102814.16
2023-04-18T12:53:52.591Z,102805.16
2023-04-18T12:56:19.129Z,102808.84
2023-04-18T12:58:45.656Z,102810.63
2023-04-18T13:01:13.967Z,102813.84
2023-04-18T13:03:45.506Z,102811.22
2023-04-18T13:06:13.551Z,102809.28
2023-04-18T13:08:40.120Z,102818.66
2023-04-18T13:11:06.667Z,102820.16
2023-04-18T13:13:34.435Z,102825.66
2023-04-18T13:16:02.287Z,102816.31
2023-04-18T13:18:28.724Z,102819.66
2023-04-18T13:20:55.347Z,102806.31
2023-04-18T13:23:21.858Z,102820.13
2023-04-18T13:25:48.357Z,102817.16
2023-04-18T13:28:14.881Z,102822.06
2023-04-18T13:30:41.281Z,102821.53
2023-04-18T13:33:07.802Z,102817.25
2023-04-18T13:35:34.247Z,102817.78
2023-04-18T13:38:00.687Z,102816.28
2023-04-18T13:40:27.308Z,102815.81
2023-04-18T13:42:53.886Z,102806.50
2023-04-18T13:45:20.668Z,102804.75
2023-04-18T13:47:47.333Z,102807.94
2023-04-18T13:50:23.290Z,102810.28
2023-04-18T13:52:51.805Z,102803.97
2023-04-18T13:55:18.702Z,102802.69
2023-04-18T13:57:45.798Z,102800.22
2023-04-18T14:00:14.340Z,102803.97
2023-04-18T14:02:41.350Z,102796.72
2023-04-18T14:05:08.449Z,102798.28
2023-04-18T14:07:36.321Z,102805.09
2023-04-18T14:10:02.779Z,102800.50
2023-04-18T14:12:29.205Z,102806.09
2023-04-18T14:14:55.846Z,102801.03
2023-04-18T14:17:22.352Z,102795.56
2023-04-18T14:19:49.372Z,102801.50
2023-04-18T14:22:15.901Z,102790.03
2023-04-18T14:24:42.460Z,102790.38
2023-04-18T14:27:08.866Z,102797.81
2023-04-18T14:29:35.434Z,102788.38
2023-04-18T14:32:01.858Z,102793.13
2023-04-18T14:34:28.349Z,102788.75
2023-04-18T14:36:55.050Z,102789.97
2023-04-18T14:39:21.658Z,102785.53
2023-04-18T14:41:48.228Z,102785.06
2023-04-18T14:44:14.740Z,102777.91
2023-04-18T14:46:42.622Z,102776.81
2023-04-18T14:49:09.190Z,102776.78
2023-04-18T14:51:35.662Z,102774.97
2023-04-18T14:54:02.212Z,102774.13
2023-04-18T14:56:28.672Z,102773.81
2023-04-18T14:58:55.267Z,102766.47
2023-04-18T15:01:21.938Z,102765.75
2023-04-18T15:03:50.785Z,102769.22
2023-04-18T15:06:17.387Z,102760.81
2023-04-18T15:08:47.130Z,102761.50
2023-04-18T15:11:13.606Z,102766.06
2023-04-18T15:13:40.245Z,102766.63
2023-04-18T15:16:07.056Z,102751.00
2023-04-18T15:18:33.533Z,102763.06
2023-04-18T15:21:00.142Z,102765.41
2023-04-18T15:23:27.436Z,102744.16
2023-04-18T15:25:53.902Z,102761.78
2023-04-18T15:28:20.349Z,102755.94
2023-04-18T15:30:46.794Z,102760.88
2023-04-18T15:33:13.582Z,102754.78
2023-04-18T15:35:40.192Z,102749.47
2023-04-18T15:38:06.668Z,102753.25
2023-04-18T15:40:33.121Z,102745.88
2023-04-18T15:42:59.731Z,102743.53
2023-04-18T15:45:26.288Z,102735.91
2023-04-18T15:47:52.846Z,102743.59
2023-04-18T15:50:19.476Z,102737.97
2023-04-18T15:52:45.962Z,102734.59
2023-04-18T15:55:13.234Z,102736.50
2023-04-18T15:57:41.573Z,102733.38
2023-04-18T16:00:15.709Z,102737.78
2023-04-18T16:02:43.912Z,102739.16
2023-04-18T16:05:12.317Z,102736.94
2023-04-18T16:07:40.118Z,102736.34
2023-04-18T16:10:09.938Z,102730.59
2023-04-18T16:12:37.635Z,102737.28
2023-04-18T16:15:06.812Z,102726.78
2023-04-18T16:17:33.285Z,102725.91
2023-04-18T16:19:59.811Z,102739.41
2023-04-18T16:22:26.408Z,102740.88
2023-04-18T16:24:52.896Z,102733.31
2023-04-18T16:27:19.323Z,102726.41
2023-04-18T16:29:46.068Z,102741.63
2023-04-18T16:32:12.581Z,102732.75
2023-04-18T16:34:38.949Z,102738.72
2023-04-18T16:37:05.456Z,102740.44
2023-04-18T16:39:32.213Z,102746.47
2023-04-18T16:41:58.867Z,102739.75
2023-04-18T16:44:25.487Z,102738.44
2023-04-18T16:46:52.170Z,102741.50
2023-04-18T16:49:19.055Z,102736.16
2023-04-18T16:51:45.564Z,102737.03
2023-04-18T16:54:12.318Z,102733.19
2023-04-18T16:56:39.114Z,102736.66
2023-04-18T16:59:05.645Z,102735.72
2023-04-18T17:01:34.049Z,102730.22
2023-04-18T17:04:00.748Z,102727.31
2023-04-18T17:06:27.554Z,102729.25
2023-04-18T17:08:54.188Z,102732.41
2023-04-18T17:11:20.987Z,102729.72
2023-04-18T17:13:47.989Z,102732.31
2023-04-18T17:16:14.465Z,102732.03
2023-04-18T17:18:41.690Z,102727.16
2023-04-18T17:21:12.282Z,102732.31
2023-04-18T17:23:41.447Z,102732.69
2023-04-18T17:26:08.951Z,102739.09
2023-04-18T17:28:36.226Z,102725.69
2023-04-18T17:31:03.099Z,102731.81
2023-04-18T17:33:29.732Z,102733.31
2023-04-18T17:35:56.284Z,102741.34
2023-04-18T17:38:23.104Z,102732.41
2023-04-18T17:40:58.504Z,102742.66
2023-04-18T17:43:24.949Z,102735.69
2023-04-18T17:45:51.345Z,102747.66
2023-04-18T17:48:17.854Z,102748.09
2023-04-18T17:50:44.388Z,102747.50
2023-04-18T17:53:15.082Z,102745.00
2023-04-18T17:55:41.580Z,102740.03
2023-04-18T17:58:08.140Z,102745.72
2023-04-18T18:00:34.863Z,102745.16
2023-04-18T18:03:03.086Z,102752.91
2023-04-18T18:05:30.364Z,102748.00
2023-04-18T18:07:57.902Z,102746.41
2023-04-18T18:10:25.004Z,102746.84
2023-04-18T18:12:51.570Z,102740.94
2023-04-18T18:15:18.450Z,102754.81
2023-04-18T18:17:44.912Z,102750.50
2023-04-18T18:20:11.752Z,102748.31
2023-04-18T18:22:38.248Z,102749.59
2023-04-18T18:25:08.191Z,102755.34
2023-04-18T18:27:34.773Z,102750.75
2023-04-18T18:30:01.461Z,102761.78
2023-04-18T18:32:28.128Z,102756.44
2023-04-18T18:34:54.697Z,102758.59
2023-04-18T18:37:23.199Z,102765.03
2023-04-18T18:39:49.716Z,102761.84
2023-04-18T18:42:16.225Z,102765.03
2023-04-18T18:44:42.671Z,102761.75
2023-04-18T18:47:09.091Z,102766.81
2023-04-18T18:49:36.064Z,102762.81
2023-04-18T18:52:04.799Z,102768.84
2023-04-18T18:54:31.659Z,102783.47
2023-04-18T18:56:59.864Z,102771.41
2023-04-18T18:59:26.252Z,102777.84
2023-04-18T19:01:54.590Z,102777.25
2023-04-18T19:04:21.632Z,102781.25
2023-04-18T19:06:48.402Z,102785.34
2023-04-18T19:09:15.049Z,102792.16
2023-04-18T19:11:41.689Z,102801.50
2023-04-18T19:14:08.159Z,102803.53
2023-04-18T19:16:35.957Z,102805.72
2023-04-18T19:19:02.613Z,102803.91
2023-04-18T19:21:29.114Z,102805.44
2023-04-18T19:23:55.745Z,102810.84
2023-04-18T19:26:23.051Z,102811.56
2023-04-18T19:28:49.696Z,102818.53
2023-04-18T19:31:16.182Z,102821.22
2023-04-18T19:33:42.768Z,102821.44
2023-04-18T19:36:09.200Z,102823.25
2023-04-18T19:38:35.807Z,102823.63
2023-04-18T19:41:02.296Z,102827.41
2023-04-18T19:43:28.780Z,102832.88
2023-04-18T19:45:55.441Z,102828.63
2023-04-18T19:48:22.039Z,102834.84
2023-04-18T19:50:49.603Z,102834.13
2023-04-18T19:53:18.706Z,102834.34
2023-04-18T19:55:45.304Z,102838.03
2023-04-18T19:58:11.795Z,102847.25
2023-04-18T20:00:38.334Z,102846.44
2023-04-18T20:03:05.114Z,102842.09
2023-04-18T20:05:31.914Z,102845.81
2023-04-18T20:07:58.444Z,102845.06
2023-04-18T20:10:24.825Z,102850.84
2023-04-18T20:12:51.318Z,102849.94
2023-04-18T20:15:17.952Z,102853.72
2023-04-18T20:17:44.463Z,102852.19
2023-04-18T20:20:11.577Z,102848.84
2023-04-18T20:22:40.220Z,102855.41
2023-04-18T20:25:06.952Z,102862.81
2023-04-18T20:27:33.352Z,102862.31
2023-04-18T20:29:59.849Z,102849.09
2023-04-18T20:32:26.711Z,102856.28
2023-04-18T20:34:53.518Z,102859.06
2023-04-18T20:37:20.155Z,102868.19
2023-04-18T20:39:47.368Z,102867.44
2023-04-18T20:42:14.568Z,102865.72
2023-04-18T20:44:46.839Z,102869.44
2023-04-18T20:47:15.478Z,102863.41
2023-04-18T20:49:42.432Z,102866.31
2023-04-18T20:52:09.557Z,102866.38
2023-04-18T20:54:36.065Z,102865.53
2023-04-18T20:57:02.671Z,102863.06
2023-04-18T20:59:29.172Z,102863.06
2023-04-18T21:01:55.853Z,102874.03
2023-04-18T21:04:23.756Z,102874.09
2023-04-18T21:06:50.978Z,102873.34
2023-04-18T21:09:17.638Z,102874.41
2023-04-18T21:11:44.167Z,102879.69
2023-04-18T21:14:10.785Z,102877.09
2023-04-18T21:16:39.179Z,102874.53
2023-04-18T21:19:06.587Z,102883.69
2023-04-18T21:21:34.147Z,102882.81
2023-04-18T21:24:01.669Z,102878.53
2023-04-18T21:26:29.442Z,102885.78
2023-04-18T21:29:01.561Z,102884.09
2023-04-18T21:31:30.781Z,102886.09
2023-04-18T21:33:59.181Z,102883.59
2023-04-18T21:36:30.537Z,102885.47
2023-04-18T21:38:58.981Z,102886.34
2023-04-18T21:41:25.917Z,102880.19
2023-04-18T21:43:52.927Z,102888.34
2023-04-18T21:46:19.667Z,102884.88
2023-04-18T21:48:47.392Z,102889.31
2023-04-18T21:51:15.221Z,102884.97
2023-04-18T21:53:42.300Z,102891.31
2023-04-18T21:56:08.921Z,102883.22
2023-04-18T21:58:35.491Z,102886.94
2023-04-18T22:01:02.217Z,102884.38
2023-04-18T22:03:29.328Z,102887.03
2023-04-18T22:05:56.602Z,102883.47
2023-04-18T22:08:25.680Z,102883.53
2023-04-18T22:10:56.323Z,102887.97
2023-04-18T22:13:23.462Z,102878.13
2023-04-18T22:15:51.486Z,102879.88
2023-04-18T22:18:19.129Z,102879.13
2023-04-18T22:20:46.848Z,102873.03
2023-04-18T22:23:14.059Z,102885.78
2023-04-18T22:25:40.856Z,102881.50
2023-04-18T22:28:07.850Z,102880.00
2023-04-18T22:30:34.456Z,102877.38
2023-04-18T22:33:01.153Z,102875.69
2023-04-18T22:35:27.693Z,102880.19
2023-04-18T22:37:55.519Z,102877.50
2023-04-18T22:40:22.168Z,102882.94
2023-04-18T22:42:48.568Z,102891.91
2023-04-18T22:45:15.507Z,102887.50
2023-04-18T22:47:42.029Z,102891.19
2023-04-18T22:50:08.836Z,102884.16
2023-04-18T22:52:35.464Z,102892.34
2023-04-18T22:55:02.980Z,102886.97
2023-04-18T22:57:29.653Z,102893.38
2023-04-18T22:59:56.440Z,102896.19
2023-04-18T23:02:23.203Z,102892.78
2023-04-18T23:04:50.390Z,102895.41
2023-04-18T23:07:17.042Z,102891.84
2023-04-18T23:09:43.529Z,102900.84
2023-04-18T23:12:10.040Z,102899.00
2023-04-18T23:14:36.542Z,102908.94
2023-04-18T23:17:03.011Z,102901.84
2023-04-18T23:19:29.488Z,102911.00
2023-04-18T23:21:55.958Z,102907.72
2023-04-18T23:24:22.424Z,102905.13
2023-04-18T23:26:48.876Z,102906.09
2023-04-18T23:29:15.277Z,102907.88
2023-04-18T23:31:41.786Z,102904.19
2023-04-18T23:34:09.993Z,102908.59
2023-04-18T23:36:37.157Z,102912.97
2023-04-18T23:39:04.090Z,102905.91
2023-04-18T23:41:30.566Z,102902.28
2023-04-18T23:43:57.020Z,102900.53
2023-04-18T23:46:23.565Z,102905.06
2023-04-18T23:48:50.208Z,102902.38
2023-04-18T23:51:16.636Z,102903.41
2023-04-18T23:53:43.073Z,102898.03
2023-04-18T23:56:09.581Z,102910.81
2023-04-18T23:58:36.045Z,102907.22
